createdAt,value
2019-03-03T00:02:00.486Z,90.07
2019-03-03T00:04:30.364Z,90.95
2019-03-03T00:06:59.160Z,91.40
2019-03-03T00:09:27.782Z,92.00
2019-03-03T00:11:56.432Z,92.59
2019-03-03T00:14:25.133Z,92.48
2019-03-03T00:16:53.888Z,92.65
2019-03-03T00:19:22.604Z,91.64
2019-03-03T00:21:51.362Z,91.67
2019-03-03T00:24:20.011Z,92.32
2019-03-03T00:26:48.797Z,92.52
2019-03-03T00:29:17.378Z,92.23
2019-03-03T00:31:46.021Z,92.98
2019-03-03T00:34:14.737Z,92.37
2019-03-03T00:37:01.044Z,92.54
2019-03-03T00:39:45.201Z,93.38
2019-03-03T00:42:38.854Z,93.48
2019-03-03T00:45:40.137Z,93.56
2019-03-03T00:48:26.308Z,93.62
2019-03-03T00:51:28.910Z,93.23
2019-03-03T00:54:20.572Z,93.61
2019-03-03T00:56:57.444Z,93.78
2019-03-03T00:59:44.572Z,93.43
2019-03-03T01:02:34.205Z,93.03
2019-03-03T01:05:13.728Z,93.67
2019-03-03T01:08:13.985Z,93.79
2019-03-03T01:10:49.514Z,94.16
2019-03-03T01:13:36.173Z,94.14
2019-03-03T01:16:23.982Z,94.17
2019-03-03T01:19:05.488Z,93.90
2019-03-03T01:21:39.434Z,93.60
2019-03-03T01:24:19.980Z,93.29
2019-03-03T01:26:48.620Z,93.34
2019-03-03T01:29:17.346Z,93.28
2019-03-03T01:31:46.056Z,92.90
2019-03-03T01:34:14.743Z,92.58
2019-03-03T01:36:43.374Z,92.52
2019-03-03T01:39:12.858Z,92.15
2019-03-03T01:41:41.492Z,91.76
2019-03-03T01:44:10.136Z,91.21
2019-03-03T01:46:38.741Z,90.96
2019-03-03T01:49:07.446Z,90.21
2019-03-03T01:51:36.147Z,90.23
2019-03-03T01:54:04.799Z,90.09
2019-03-03T01:56:33.490Z,89.38
2019-03-03T01:59:02.104Z,89.36
2019-03-03T02:01:30.839Z,89.52
2019-03-03T02:03:59.462Z,89.70
2019-03-03T02:06:28.132Z,89.42
2019-03-03T02:08:56.774Z,89.30
2019-03-03T02:11:25.501Z,89.52
2019-03-03T02:13:54.149Z,89.65
2019-03-03T02:16:22.874Z,89.31
2019-03-03T02:18:52.386Z,89.07
2019-03-03T02:21:21.035Z,89.12
2019-03-03T02:23:49.678Z,88.91
2019-03-03T02:26:18.418Z,89.29
2019-03-03T02:28:47.083Z,88.90
2019-03-03T02:31:15.708Z,88.80
2019-03-03T02:33:44.427Z,88.80
2019-03-03T02:36:13.219Z,88.84
2019-03-03T02:38:41.820Z,89.38
2019-03-03T02:41:10.491Z,89.32
2019-03-03T02:43:40.468Z,89.24
2019-03-03T02:46:09.257Z,88.98
2019-03-03T02:48:37.964Z,89.15
2019-03-03T02:51:06.636Z,88.83
2019-03-03T02:53:35.358Z,89.03
2019-03-03T02:56:04.018Z,89.53
2019-03-03T02:58:32.697Z,89.17
2019-03-03T03:01:06.893Z,89.23
2019-03-03T03:03:35.497Z,89.13
2019-03-03T03:06:12.684Z,89.38
2019-03-03T03:08:58.954Z,89.34
2019-03-03T03:11:53.043Z,89.03
2019-03-03T03:14:40.679Z,88.66
2019-03-03T03:17:16.437Z,89.07
2019-03-03T03:19:56.766Z,89.03
2019-03-03T03:22:34.998Z,89.16
2019-03-03T03:25:22.667Z,88.90
2019-03-03T03:27:57.514Z,88.57
2019-03-03T03:30:32.321Z,88.76
2019-03-03T03:33:22.707Z,88.56
2019-03-03T03:36:02.158Z,88.44
2019-03-03T03:38:55.151Z,88.58
2019-03-03T03:41:37.450Z,88.43
2019-03-03T03:44:36.913Z,88.47
2019-03-03T03:47:25.737Z,87.79
2019-03-03T03:50:15.213Z,88.23
2019-03-03T03:52:54.137Z,88.33
2019-03-03T03:55:43.923Z,88.24
2019-03-03T03:58:31.572Z,88.27
2019-03-03T04:01:14.356Z,88.40
2019-03-03T04:03:47.912Z,88.72
2019-03-03T04:06:21.659Z,88.45
2019-03-03T04:08:57.428Z,88.49
2019-03-03T04:11:37.970Z,88.46
2019-03-03T04:14:14.556Z,88.28
2019-03-03T04:17:04.969Z,88.60
2019-03-03T04:19:52.626Z,88.95
2019-03-03T04:22:30.205Z,89.21
2019-03-03T04:25:08.493Z,89.08
2019-03-03T04:27:53.161Z,89.03
2019-03-03T04:30:46.710Z,88.68
2019-03-03T04:33:37.559Z,88.19
2019-03-03T04:36:25.268Z,88.88
2019-03-03T04:39:18.627Z,88.53
2019-03-03T04:41:55.784Z,88.71
2019-03-03T04:44:32.085Z,88.45
2019-03-03T04:47:16.422Z,88.63
2019-03-03T04:50:06.273Z,88.71
2019-03-03T04:52:39.783Z,88.57
2019-03-03T04:55:33.626Z,88.50
2019-03-03T04:58:09.294Z,88.37
2019-03-03T05:00:57.354Z,88.31
2019-03-03T05:04:03.183Z,88.51
2019-03-03T05:06:41.011Z,88.37
2019-03-03T05:09:19.124Z,88.22
2019-03-03T05:12:38.019Z,88.34
2019-03-03T05:15:31.097Z,88.44
2019-03-03T05:18:11.034Z,88.70
2019-03-03T05:20:47.037Z,88.36
2019-03-03T05:23:15.731Z,87.99
2019-03-03T05:25:44.373Z,88.03
2019-03-03T05:28:12.997Z,87.87
2019-03-03T05:30:41.712Z,87.91
2019-03-03T05:33:10.362Z,87.84
2019-03-03T05:35:39.020Z,87.82
2019-03-03T05:38:07.707Z,87.44
2019-03-03T05:40:36.421Z,87.80
2019-03-03T05:43:05.105Z,87.62
2019-03-03T05:45:33.739Z,87.50
2019-03-03T05:48:02.367Z,87.42
2019-03-03T05:50:31.003Z,86.90
2019-03-03T05:52:59.645Z,86.94
2019-03-03T05:55:28.337Z,86.52
2019-03-03T05:57:56.948Z,86.59
2019-03-03T06:00:25.695Z,86.15
2019-03-03T06:02:54.302Z,86.24
2019-03-03T06:05:22.946Z,85.79
2019-03-03T06:07:51.554Z,86.32
2019-03-03T06:10:20.241Z,85.74
2019-03-03T06:12:48.883Z,85.78
2019-03-03T06:15:17.519Z,85.50
2019-03-03T06:17:46.294Z,85.50
2019-03-03T06:20:15.011Z,85.24
2019-03-03T06:22:43.657Z,85.47
2019-03-03T06:25:12.699Z,85.25
2019-03-03T06:27:41.508Z,85.14
2019-03-03T06:30:15.346Z,85.27
2019-03-03T06:32:44.154Z,85.32
2019-03-03T06:35:13.022Z,85.18
2019-03-03T06:37:41.771Z,85.09
2019-03-03T06:40:10.739Z,85.34
2019-03-03T06:42:39.855Z,84.82
2019-03-03T06:45:09.779Z,85.18
2019-03-03T06:47:38.599Z,85.14
2019-03-03T06:50:13.068Z,85.45
2019-03-03T06:52:43.539Z,85.45
2019-03-03T06:55:12.581Z,85.41
2019-03-03T06:57:42.983Z,85.72
2019-03-03T07:00:14.670Z,85.44
2019-03-03T07:02:45.175Z,85.28
2019-03-03T07:05:13.945Z,85.30
2019-03-03T07:07:43.463Z,85.64
2019-03-03T07:10:13.947Z,85.82
2019-03-03T07:12:43.299Z,85.48
2019-03-03T07:15:14.120Z,85.39
2019-03-03T07:17:43.234Z,84.89
2019-03-03T07:20:13.511Z,84.99
2019-03-03T07:22:43.686Z,84.73
2019-03-03T07:25:12.792Z,84.59
2019-03-03T07:27:41.609Z,84.44
2019-03-03T07:30:12.811Z,84.74
2019-03-03T07:32:47.256Z,84.92
2019-03-03T07:35:16.119Z,84.61
2019-03-03T07:37:44.940Z,84.41
2019-03-03T07:40:13.755Z,84.60
2019-03-03T07:42:42.589Z,84.35
2019-03-03T07:45:11.698Z,84.34
2019-03-03T07:47:40.468Z,84.76
2019-03-03T07:50:09.227Z,84.57
2019-03-03T07:52:38.108Z,84.29
2019-03-03T07:55:07.749Z,84.32
2019-03-03T07:57:36.566Z,84.35
2019-03-03T08:00:07.407Z,84.21
2019-03-03T08:02:36.187Z,84.10
2019-03-03T08:05:05.212Z,84.13
2019-03-03T08:07:35.035Z,84.23
2019-03-03T08:10:06.203Z,84.47
2019-03-03T08:12:35.099Z,84.17
2019-03-03T08:15:04.571Z,84.55
2019-03-03T08:17:33.890Z,84.30
2019-03-03T08:20:02.707Z,84.33
2019-03-03T08:22:31.561Z,84.41
2019-03-03T08:25:00.412Z,84.41
2019-03-03T08:27:34.399Z,84.30
2019-03-03T08:30:04.832Z,84.41
2019-03-03T08:32:33.413Z,84.01
2019-03-03T08:35:02.044Z,84.06
2019-03-03T08:37:30.669Z,83.74
2019-03-03T08:39:59.307Z,83.64
2019-03-03T08:42:34.591Z,83.69
2019-03-03T08:45:34.348Z,83.75
2019-03-03T08:48:24.742Z,83.70
2019-03-03T08:50:57.393Z,83.53
2019-03-03T08:53:46.654Z,83.81
2019-03-03T08:56:25.501Z,83.93
2019-03-03T08:59:03.720Z,83.60
2019-03-03T09:01:47.997Z,83.48
2019-03-03T09:04:26.566Z,83.25
2019-03-03T09:07:19.247Z,82.86
2019-03-03T09:10:25.322Z,82.59
2019-03-03T09:13:14.210Z,82.88
2019-03-03T09:15:52.083Z,82.61
2019-03-03T09:18:32.271Z,82.15
2019-03-03T09:21:18.550Z,81.86
2019-03-03T09:24:01.202Z,81.60
2019-03-03T09:26:47.482Z,81.53
2019-03-03T09:29:26.015Z,81.45
2019-03-03T09:32:13.140Z,81.30
2019-03-03T09:34:50.958Z,81.15
2019-03-03T09:37:28.224Z,81.05
2019-03-03T09:40:14.412Z,80.84
2019-03-03T09:42:50.187Z,80.66
2019-03-03T09:45:31.306Z,80.77
2019-03-03T09:48:13.166Z,80.56
2019-03-03T09:51:03.770Z,80.39
2019-03-03T09:53:45.221Z,80.61
2019-03-03T09:56:31.561Z,80.42
2019-03-03T09:59:19.333Z,80.21
2019-03-03T10:02:07.060Z,79.86
2019-03-03T10:05:00.624Z,79.67
2019-03-03T10:07:53.317Z,79.67
2019-03-03T10:10:39.661Z,79.78
2019-03-03T10:13:14.992Z,78.90
2019-03-03T10:16:15.022Z,78.98
2019-03-03T10:18:50.102Z,78.23
2019-03-03T10:21:28.821Z,78.62
2019-03-03T10:24:16.460Z,77.87
2019-03-03T10:27:02.729Z,77.77
2019-03-03T10:29:40.799Z,77.52
2019-03-03T10:32:43.534Z,77.91
2019-03-03T10:35:28.283Z,77.27
2019-03-03T10:38:05.611Z,78.30
2019-03-03T10:40:48.226Z,78.01
2019-03-03T10:43:37.714Z,78.00
2019-03-03T10:46:14.868Z,77.75
2019-03-03T10:49:20.979Z,77.97
2019-03-03T10:51:58.870Z,77.89
2019-03-03T10:54:40.474Z,77.87
2019-03-03T10:57:21.586Z,77.90
2019-03-03T11:00:04.233Z,77.82
2019-03-03T11:02:50.396Z,77.85
2019-03-03T11:05:36.821Z,78.09
2019-03-03T11:08:30.282Z,78.01
2019-03-03T11:11:23.732Z,77.78
2019-03-03T11:14:16.230Z,78.07
2019-03-03T11:17:04.000Z,77.60
2019-03-03T11:19:43.938Z,78.00
2019-03-03T11:22:24.540Z,77.68
2019-03-03T11:25:17.753Z,77.66
2019-03-03T11:27:54.576Z,76.56
2019-03-03T11:30:51.381Z,77.03
2019-03-03T11:33:39.249Z,76.93
2019-03-03T11:36:26.966Z,76.96
2019-03-03T11:39:05.218Z,76.80
2019-03-03T11:42:01.895Z,76.50
2019-03-03T11:44:48.208Z,77.01
2019-03-03T11:47:23.785Z,76.49
2019-03-03T11:50:20.383Z,77.06
2019-03-03T11:52:55.664Z,76.18
2019-03-03T11:55:29.398Z,76.10
2019-03-03T11:58:13.825Z,76.45
2019-03-03T12:01:04.244Z,76.34
2019-03-03T12:03:54.588Z,78.47
2019-03-03T12:06:41.126Z,79.87
2019-03-03T12:09:35.221Z,80.36
2019-03-03T12:12:14.434Z,81.40
2019-03-03T12:15:00.541Z,79.97
2019-03-03T12:17:50.199Z,78.76
2019-03-03T12:20:27.557Z,79.30
2019-03-03T12:23:20.923Z,81.92
2019-03-03T12:26:11.473Z,83.47
2019-03-03T12:29:01.980Z,82.87
2019-03-03T12:31:50.795Z,85.49
2019-03-03T12:34:24.996Z,85.75
2019-03-03T12:37:27.750Z,88.22
2019-03-03T12:40:21.390Z,88.29
2019-03-03T12:43:14.903Z,88.73
2019-03-03T12:46:20.596Z,88.36
2019-03-03T12:49:17.070Z,88.74
2019-03-03T12:52:04.170Z,88.62
2019-03-03T12:54:41.134Z,88.60
2019-03-03T12:57:40.809Z,88.74
2019-03-03T13:00:16.715Z,88.37
2019-03-03T13:03:03.342Z,89.69
2019-03-03T13:05:44.707Z,88.61
2019-03-03T13:08:21.989Z,88.84
2019-03-03T13:11:08.204Z,86.47
2019-03-03T13:13:44.360Z,86.15
2019-03-03T13:16:18.696Z,85.44
2019-03-03T13:18:59.322Z,84.72
2019-03-03T13:21:45.662Z,84.92
2019-03-03T13:24:26.405Z,84.33
2019-03-03T13:27:19.923Z,82.89
2019-03-03T13:30:10.331Z,82.66
2019-03-03T13:33:16.241Z,82.42
2019-03-03T13:36:12.165Z,81.81
2019-03-03T13:38:49.741Z,81.38
2019-03-03T13:41:27.935Z,81.00
2019-03-03T13:43:56.641Z,81.28
2019-03-03T13:46:25.290Z,81.17
2019-03-03T13:48:53.914Z,80.41
2019-03-03T13:51:22.580Z,80.86
2019-03-03T13:53:51.208Z,79.96
2019-03-03T13:56:20.304Z,80.87
2019-03-03T13:58:49.014Z,80.27
2019-03-03T14:01:17.707Z,81.27
2019-03-03T14:03:46.336Z,81.19
2019-03-03T14:06:15.039Z,81.30
2019-03-03T14:08:43.766Z,81.57
2019-03-03T14:11:12.507Z,80.31
2019-03-03T14:13:41.212Z,80.64
2019-03-03T14:16:09.911Z,80.40
2019-03-03T14:18:38.549Z,80.21
2019-03-03T14:21:07.144Z,80.45
2019-03-03T14:23:35.942Z,80.40
2019-03-03T14:26:04.615Z,80.01
2019-03-03T14:28:33.248Z,79.86
2019-03-03T14:31:01.926Z,80.29
2019-03-03T14:33:32.848Z,80.23
2019-03-03T14:36:01.459Z,80.18
2019-03-03T14:38:30.103Z,80.49
2019-03-03T14:40:58.706Z,80.14
2019-03-03T14:43:27.435Z,80.00
2019-03-03T14:45:58.047Z,79.88
2019-03-03T14:48:28.948Z,79.69
2019-03-03T14:50:57.977Z,79.28
2019-03-03T14:53:27.090Z,79.83
2019-03-03T14:55:56.009Z,79.65
2019-03-03T14:58:27.999Z,79.62
2019-03-03T15:01:00.986Z,79.57
2019-03-03T15:03:30.426Z,79.06
2019-03-03T15:06:00.083Z,78.91
2019-03-03T15:08:53.898Z,78.36
2019-03-03T15:11:22.955Z,78.14
2019-03-03T15:13:52.756Z,78.66
2019-03-03T15:16:21.773Z,78.74
2019-03-03T15:18:53.673Z,79.62
2019-03-03T15:21:25.310Z,79.67
2019-03-03T15:23:53.779Z,79.85
2019-03-03T15:26:23.501Z,79.57
2019-03-03T15:28:52.909Z,80.57
2019-03-03T15:31:21.734Z,80.78
2019-03-03T15:33:50.939Z,81.42
2019-03-03T15:36:21.852Z,80.99
2019-03-03T15:38:50.693Z,81.60
2019-03-03T15:41:20.160Z,81.65
2019-03-03T15:43:48.766Z,81.72
2019-03-03T15:46:17.551Z,81.33
2019-03-03T15:48:46.334Z,81.36
2019-03-03T15:51:15.061Z,81.48
2019-03-03T15:53:43.806Z,82.00
2019-03-03T15:56:12.502Z,81.14
2019-03-03T15:58:41.808Z,81.43
2019-03-03T16:01:14.798Z,82.01
2019-03-03T16:03:43.529Z,82.12
2019-03-03T16:06:12.243Z,81.84
2019-03-03T16:08:40.864Z,82.13
2019-03-03T16:11:09.631Z,81.66
2019-03-03T16:13:38.246Z,81.81
2019-03-03T16:16:06.914Z,81.59
2019-03-03T16:18:35.562Z,81.82
2019-03-03T16:21:04.210Z,81.59
2019-03-03T16:23:32.933Z,81.79
2019-03-03T16:26:01.606Z,81.76
2019-03-03T16:28:30.213Z,81.66
2019-03-03T16:30:58.836Z,81.50
2019-03-03T16:33:27.527Z,81.41
2019-03-03T16:35:56.137Z,80.52
2019-03-03T16:38:24.940Z,80.87
2019-03-03T16:40:53.577Z,80.44
2019-03-03T16:43:23.174Z,80.69
2019-03-03T16:45:51.899Z,80.21
2019-03-03T16:48:20.587Z,80.61
2019-03-03T16:50:49.330Z,80.94
2019-03-03T16:53:17.951Z,80.69
2019-03-03T16:55:46.571Z,80.33
2019-03-03T16:58:15.263Z,80.61
2019-03-03T17:00:43.927Z,80.16
2019-03-03T17:03:12.543Z,79.74
2019-03-03T17:05:41.242Z,80.01
2019-03-03T17:08:09.935Z,79.59
2019-03-03T17:10:38.701Z,79.94
2019-03-03T17:13:07.472Z,79.99
2019-03-03T17:15:36.120Z,79.28
2019-03-03T17:18:04.953Z,78.81
2019-03-03T17:20:33.627Z,78.76
2019-03-03T17:23:02.293Z,78.37
2019-03-03T17:25:30.952Z,78.42
2019-03-03T17:27:59.632Z,78.78
2019-03-03T17:30:28.508Z,78.69
2019-03-03T17:32:57.384Z,78.51
2019-03-03T17:35:26.077Z,78.59
2019-03-03T17:37:56.566Z,78.73
2019-03-03T17:40:25.123Z,78.25
2019-03-03T17:42:53.877Z,77.89
2019-03-03T17:45:23.070Z,78.29
2019-03-03T17:47:55.963Z,78.31
2019-03-03T17:50:27.183Z,78.08
2019-03-03T17:52:56.787Z,78.06
2019-03-03T17:55:33.091Z,78.25
2019-03-03T17:58:02.031Z,78.17
2019-03-03T18:00:39.183Z,78.33
2019-03-03T18:03:08.877Z,78.09
2019-03-03T18:05:41.880Z,78.53
2019-03-03T18:08:13.452Z,78.12
2019-03-03T18:10:46.259Z,77.88
2019-03-03T18:13:17.351Z,78.30
2019-03-03T18:15:51.191Z,78.12
2019-03-03T18:18:20.582Z,77.84
2019-03-03T18:20:49.939Z,77.53
2019-03-03T18:23:20.720Z,77.24
2019-03-03T18:25:51.471Z,77.65
2019-03-03T18:28:20.945Z,77.35
2019-03-03T18:30:50.812Z,77.44
2019-03-03T18:33:20.410Z,77.42
2019-03-03T18:35:50.466Z,77.05
2019-03-03T18:38:19.891Z,77.48
2019-03-03T18:40:48.954Z,77.36
2019-03-03T18:43:20.394Z,77.04
2019-03-03T18:45:49.202Z,77.56
2019-03-03T18:48:18.061Z,77.54
2019-03-03T18:50:48.331Z,77.23
2019-03-03T18:53:18.135Z,77.41
2019-03-03T18:55:48.161Z,77.19
2019-03-03T18:58:18.805Z,77.24
2019-03-03T19:00:48.709Z,77.07
2019-03-03T19:03:19.035Z,76.58
2019-03-03T19:05:55.466Z,76.87
2019-03-03T19:08:19.411Z,76.99
2019-03-03T19:10:48.894Z,76.75
2019-03-03T19:13:18.034Z,76.68
2019-03-03T19:15:48.983Z,76.68
2019-03-03T19:18:20.193Z,76.35
2019-03-03T19:20:49.347Z,76.61
2019-03-03T19:23:21.017Z,76.50
2019-03-03T19:25:54.178Z,76.62
2019-03-03T19:28:23.879Z,76.23
2019-03-03T19:30:53.888Z,76.51
2019-03-03T19:33:30.058Z,76.02
2019-03-03T19:36:07.539Z,75.92
2019-03-03T19:38:36.652Z,76.03
2019-03-03T19:41:06.022Z,76.22
2019-03-03T19:43:45.318Z,76.12
2019-03-03T19:46:14.189Z,76.53
2019-03-03T19:48:44.581Z,76.78
2019-03-03T19:51:15.780Z,76.90
2019-03-03T19:53:44.657Z,77.10
2019-03-03T19:56:14.949Z,76.92
2019-03-03T19:58:44.014Z,77.12
2019-03-03T20:01:12.863Z,76.84
2019-03-03T20:03:41.783Z,76.97
2019-03-03T20:06:10.687Z,77.20
2019-03-03T20:08:39.442Z,77.42
2019-03-03T20:11:11.043Z,77.76
2019-03-03T20:13:40.023Z,77.66
2019-03-03T20:16:09.146Z,77.81
2019-03-03T20:18:37.877Z,77.75
2019-03-03T20:21:07.119Z,78.04
2019-03-03T20:23:35.984Z,77.75
2019-03-03T20:26:05.041Z,77.93
2019-03-03T20:28:33.911Z,77.92
2019-03-03T20:31:03.001Z,78.14
2019-03-03T20:33:31.788Z,77.93
2019-03-03T20:36:00.623Z,78.01
2019-03-03T20:38:29.769Z,78.03
2019-03-03T20:41:01.797Z,78.19
2019-03-03T20:43:30.956Z,78.29
2019-03-03T20:45:59.884Z,78.52
2019-03-03T20:48:30.323Z,78.36
2019-03-03T20:50:59.069Z,78.36
2019-03-03T20:53:27.937Z,78.55
2019-03-03T20:55:59.168Z,79.10
2019-03-03T20:58:33.455Z,78.57
2019-03-03T21:01:05.383Z,78.38
2019-03-03T21:03:34.719Z,78.14
2019-03-03T21:06:03.699Z,78.40
2019-03-03T21:08:35.082Z,78.01
2019-03-03T21:11:04.212Z,78.19
2019-03-03T21:13:37.198Z,78.20
2019-03-03T21:16:06.067Z,78.21
2019-03-03T21:18:36.688Z,78.01
2019-03-03T21:21:06.063Z,78.22
2019-03-03T21:23:35.027Z,78.15
2019-03-03T21:26:04.697Z,78.13
2019-03-03T21:28:54.060Z,77.90
2019-03-03T21:31:23.732Z,77.66
2019-03-03T21:33:53.955Z,77.83
2019-03-03T21:36:23.285Z,77.85
2019-03-03T21:39:17.838Z,77.58
2019-03-03T21:41:55.842Z,77.39
2019-03-03T21:44:26.129Z,77.44
2019-03-03T21:47:10.720Z,77.26
2019-03-03T21:49:41.905Z,76.82
2019-03-03T21:52:13.008Z,77.16
2019-03-03T21:54:58.217Z,77.47
2019-03-03T21:57:28.856Z,77.31
2019-03-03T21:59:57.677Z,77.20
2019-03-03T22:02:26.971Z,77.34
2019-03-03T22:05:00.778Z,77.17
2019-03-03T22:08:06.309Z,78.57
2019-03-03T22:10:35.880Z,77.74
2019-03-03T22:13:12.475Z,77.90
2019-03-03T22:15:42.081Z,77.69
2019-03-03T22:18:23.599Z,78.19
2019-03-03T22:21:05.022Z,78.55
2019-03-03T22:23:36.223Z,78.67
2019-03-03T22:26:10.792Z,78.90
2019-03-03T22:28:43.733Z,78.79
2019-03-03T22:31:19.799Z,79.06
2019-03-03T22:33:53.138Z,78.79
2019-03-03T22:36:26.360Z,78.93
2019-03-03T22:42:18.382Z,79.08
2019-03-03T22:44:50.009Z,78.70
2019-03-03T22:47:26.216Z,79.26
2019-03-03T22:50:03.726Z,79.44
2019-03-03T22:52:32.670Z,79.70
2019-03-03T22:55:07.115Z,79.97
2019-03-03T22:57:42.407Z,79.80
2019-03-03T23:00:45.554Z,79.93
2019-03-03T23:03:24.091Z,80.47
2019-03-03T23:06:34.677Z,80.66
2019-03-03T23:09:40.963Z,80.41
2019-03-03T23:12:35.025Z,81.26
2019-03-03T23:15:38.701Z,81.27
2019-03-03T23:18:44.993Z,81.52
2019-03-03T23:21:43.070Z,81.32
2019-03-03T23:24:49.931Z,81.02
2019-03-03T23:27:20.077Z,81.03
2019-03-03T23:29:55.394Z,80.97
2019-03-03T23:32:31.179Z,80.81
2019-03-03T23:35:00.221Z,80.87
2019-03-03T23:37:35.382Z,80.57
2019-03-03T23:40:04.611Z,80.65
2019-03-03T23:42:33.361Z,80.77
2019-03-03T23:45:02.108Z,80.56
2019-03-03T23:47:33.555Z,79.98
2019-03-03T23:50:02.655Z,80.26
2019-03-03T23:52:31.485Z,80.03
2019-03-03T23:55:04.218Z,79.50
2019-03-03T23:57:33.913Z,78.64
